Bullange, Belgium
Current Conditions -  °F | °C
As of 4:43 PM on Friday 24 Oct 2014 (Local Time) from EBLB Reporting Station
Broken Clouds Broken Clouds  
Wind Chill: 46°   Ceiling: 6000
Heat Index: 48°   Visibility: 6mi
Dew Point: 45°   Wind: 5mph
Humidity: 87%   Direction: 210°SSW
Pressure: 30.09"   Gusts: NA
Location:  50.41°N, 6.26°E
Report Text: EBLB 241443Z AUTO 21004KT 9999 FEW014/// SCT018/// BKN060/// 09/07 Q1019 WHT
Loading
Personal Weather Stations






























Interactive Weather Map
Tropical Storm Tracking
New forecast layout! Learn more

10-Day Weather Forecast

Advertisements
Track Severe Weather on mobile